Language selection

My Weather Profile Weather Topics  | 

Resolution - eastern half: Past 24 Hour Conditions

 

Cartwright Airport

03:00 AM ADT 21 June 2021
Disclaimer

This table is a summary of hourly weather conditions for the past 24 hours.
Please note that these observations might not always be representative of weather conditions over their associated marine area.

Date / Time
(ADT)
Wind(knots) Conditions Visibility(km) Pressure(kPa) Air tempC) Relative humidity(%) Dew pointC)
21 June 2021
3:00 NNE 7 Cloudy 16 100.4 7 98 7
2:00 NNE 9 Cloudy 16 100.3 8 98 7
1:00 NE 7 Cloudy 16 100.3 8 99 8
0:00 N 5 Cloudy 16 100.4 7 99 7
20 June 2021
23:00 N 7 Light Rain 16 100.4 7 98 7
22:00 NNE 8 Light Rain 16 100.4 7 98 7
21:00 N 10 gust 15 Cloudy 16 100.4 7 97 7
20:00 N 12 gust 17 Light Rain 16 100.3 8 97 8
19:00 N 7 Light Rain 16 100.3 10 96 9
18:00 N 5 Cloudy 16 100.2 12 94 11
17:00 N 5 Light Rain 11 100.2 15 98 15
16:00 E 5 Light Rain 16 100.2 17 90 15
15:00 SW 2 Rain 16 100.2 18 83 15
14:00 NW 2 Partly Cloudy 16 100.2 20 63 13
13:00 N 2 Cloudy 16 100.2 18 69 12
12:00 W 7 Mostly Cloudy 16 100.2 19 63 12
11:00 WNW 5 Mostly Cloudy 16 100.3 18 62 11
10:00 W 4 Mostly Cloudy 16 100.3 17 63 10
9:00 W 3 Mostly Cloudy 16 100.3 16 66 9
8:00 WSW 3 Cloudy 16 100.3 15 68 9
7:00 SW 4 Cloudy 16 100.3 14 69 9
6:00 SSW 5 Cloudy 16 100.3 14 71 9
5:00 SW 6 Cloudy 16 100.3 12 75 8
4:00 SW 5 Cloudy 16 100.4 12 71 7
3:00 S 5 Mostly Cloudy 16 100.4 13 71 8

Zoom-in to make a selection

Map of Atlantic - Labrador marine weather areas Kangiqsualujjuaq Airport Cape Kakkiviak Cape Kiglapait Cartwright Airport CFB Goose Bay Hopedale Mary's Harbour Nain Airport Makkovik Airport Saglek Tukialik Bay
Legend:
buoy Buoy
land station Land Station

Atlantic - Labrador Area

Another Region

What we are doing

Date modified: